Terminal Aerodrome Forecast
Issued by NWS Memphis, TN

Home | Current Version | Previous Version | Text Only | Print | Product List | Glossary On
Versions: 1 2 3 4 5 6 7 8 9 10 11 12 13 14 15 16 17 18 19 20 21 22 23 24 25
000
FTUS44 KMEG 271402 AAA
TAFJBR
TAF AMD
KJBR 271402Z 2714/2812 23010KT P6SM VCTS SCT040CB BKN150
      TEMPO 2714/2717 4SM -SHRA BKN040
     FM271700 23010KT P6SM VCSH BKN040 OVC100
     FM272300 19003KT P6SM SCT050 BKN150
     FM280200 17002KT P6SM FEW250
      TEMPO 2810/2812 4SM BR=

USA.gov is the U.S. government's official web portal to all federal, state and local government web resources and services.